CYTQ

Tasiujaq Airport

Tasiujaq, Quebec, Canada

CYTQ 102200Z 24009KT 15SM -SN FEW018 BKN045 M20/M23 A2963 RMK SC1SC6 VRY LGT PCPN LAST STFD OBS/NEXT 111300UTC SLP039

Observed Flight Rules
Dec-10 @ 22:00 UTC (12 hours ago) Visual Flight Rules
Wind Visibility Clouds Conditions
240° at 9 knots 15 miles
  • Few at 1,800' AGL
  • Broken at 4,500' AGL
  • Light Snow
Temperatures Readings
Current -20°C / -4°F
Dewpoint -23°C / -9°F
Humidity 77%
Altimeter 29.63" Hg
Pressure 1003.9 hPa
Elevation 31
Observed Flight Rules
Dec-10 @ 22:00 UTC
(12 hours ago)
VFR
Wind Visibility
240° at 9 knots 15 miles
Clouds
  • Few at 1,800' AGL
  • Broken at 4,500' AGL
Conditions
  • Light Snow
Temperature Dewpoint
-20°C / -4°F -23°C / -9°F
Humidity Altimeter Pressure
77% 29.63" Hg 1003.9 hPa